Wetter

ACHTUNG: Die hier angeboten Wetter-Informationen sind nicht geeicht und dürfen für Flugvorbereitungen nicht verwendet werden
ACG Flugwetter

METAR/TAF LOXZ

LOXZ 021750Z 07004KT 20KM FEW015ST SCT065SC BKN110AC 20/17 Q1014 NOSIG

TAF LOXZ 181415Z 1812/1824 CNL

METAR/TAF LOXA

LOXA 100820Z VRB02KT 50KM FEW120AC SCT300CI 17/13 Q1021 NOSIG RMK SCT

TAF TAF LOXA 090515Z 0906/0918 VRB03KT 0500 FG SCT060 BECMG 0906/0908 9999 NSW FEW060 BECMG 0909/0911 04007KT TEMPO 0910/0915 SCT060 BKN100

METAR/TAF LOWG 

LOWG 021820Z AUTO 06004KT 9999 NSC 23/17 Q1012 NOSIG

TAF LOWG 021715Z 0218/0318 VRB05KT CAVOK TX22/0314Z TN18/0303Z PROB40 TEMPO 0222/0306 35012KT 4000 TSRA BKN060CB TEMPO 0306/0309 35007KT -SHRA

(Information der letzten Stunde)

(Information der letzten Stunde)

Dichtehöhe (in LOGT)
Temperatur / Windchill der letzten 10 Tage

Ext. Links zu Wetterdiensten

ALDIS

Öster.- Unwetterzentrale